Aeroporto :
LOGIN :

Iscrizione | Disclaimer

   EN    FR    IT 

 










Sommario :    VFR   VFR Marginale   IFR   IFR Intensivo   IFR Molto Intensivo
Visibilità : 
Base nubi : 
>= 8 km
>= 3000ft
5 / 8 km
1000 / 3000 ft
1500m / 5 km
500 / 1000 ft
800 / 1500m
200 / 500 ft
< 800m
< 200 ft
Simboli :   Temporali  Nebbia  Neve Forte  Precipitazioni Forti  Vento > 20 kt
SIGMETs :   Varie  Temporali  Ghiacco  Turbolenza  Onda orograficha  Ceneri Vulcaniche






- Altitudine del aeroporto : 231 ft
- Codice IATA : WTN


EGXW - RAF Waddington

ULTIMO METAR :
  • 151220Z 03015KT 9999 FEW020 SCT030 BKN050 09/06 Q1006 TEMPO SCT020 RMK BLU TEMPO WHT

METARs OBSOLETI :
  • 151150Z 02012KT 9999 FEW022 BKN025 09/06 Q1007 NOSIG RMK BLU BLU
  • 151121Z 02009KT 9999 SCT025 BKN150 09/06 Q1007 NOSIG RMK BLU BLU
  • 151050Z 01011KT 9999 FEW022 BKN150 08/06 Q1007 NOSIG RMK BLU BLU
  • 151022Z 01010KT 9999 SCT025 BKN150 08/06 Q1007 NOSIG RMK BLU BLU
  • 150950Z 03010KT 9999 FEW020 SCT042 BKN150 07/05 Q1007 TEMPO SCT020 RMK BLU TEMPO WHT

TAF TAF EGXW
Valido dal 15 a 12 ore il 16 a 06 ore UTC


151038Z 1512/1606 02013KT 9999 BKN030
PROB40
TEMPO 1512/1516 SCT016
TEMPO 1513/1522 03015G25KT
BECMG 1516/1519 BKN020
TEMPO 1517/1523 6000 RA BKN012
PROB30
TEMPO 1517/1523 4000 +RA
PROB30
TEMPO 1520/1524 SCT006
PROB40
TEMPO 1523/1606 SCT010
BECMG 1600/1603 BKN025
PROB30 1603/1606 5000 BR



MetMap, La meteo Aeronautica in un colpo d'occhio ! - Copyright ORBIFLY Dicembre 2007 - Disclaimer

ORBIFLY MET'MAP TEAM :

Programmazione e sviluppo : Alexandra Zaïnal
Concezione e sviluppo : Baudouin d'Aumeries
Co-Programmazione e sviluppo : Marc-Olivier Méhu
Supporto tecnico e logistico : Manuel Goepfert
Aiuto per la traduzione : Arnaldo La Scala

Contatto : metmap@orbifly.com




FONTI E CREDITI :

   NOAA